Nearby METAR (Airport) Reports

 

KPRN - Greenville, Alabama, USA
Distance from station: WNW 17mi, 28km
Updated: Wed, 26-Jun-2019 11:56pm CDT
Clear
Clear
 Wind from calm
Wind: Calm
Temperature: 75°F , 24°C
Dew Point: 66°F , 19°C
Humidity: 74%
Barometer: 30.17 inHg , 1021.7 hPa
Clouds: Clear
Visibility: 10 miles , 16 km
2019/06/27 04:56 KPRN 270456Z AUTO 00000KT 10SM CLR 24/19 A3017 RMK AO2 SLP212 T02390189 $
KTOI - Troy, Alabama, USA
Distance from station: ENE 21mi, 34km
Updated: Thu, 27-Jun-2019 12:53am CDT
Clear
Clear
 Wind from calm
Wind: Calm
Temperature: 70°F , 21°C
Dew Point: 66°F , 19°C
Humidity: 88%
Barometer: 30.18 inHg , 1022 hPa
Clouds: Clear
Visibility: 10 miles , 16 km
2019/06/27 05:53 KTOI 270553Z AUTO 00000KT 10SM CLR 21/19 A3018 RMK AO2 SLP215 T02060189 10300 20206 403390206 56004
K79J - Andalusia/Opp Ar, Alabama, USA
Distance from station: S 29mi, 47km
Updated: Wed, 26-Jun-2019 11:56pm CDT
Clear
Clear
 Wind from WNW
Wind: WNW 3 mph , 6 km/h
Temperature: 81°F , 27°C
Heat Index: 84°F , 29°C
Dew Point: 68°F , 20°C
Humidity: 66%
Barometer: 30.17 inHg , 1021.7 hPa
Clouds: Clear
Visibility: 10 miles , 16 km
2019/06/27 04:56 K79J 270456Z AUTO 29003KT 10SM CLR 27/20 A3017 RMK AO2 SLP210 T02670200 403670239
 
KMGM - Montgomery, Alabama, USA
Distance from station: N 39mi, 63km
Updated: Thu, 27-Jun-2019 12:53am CDT
Clear
Clear
 Wind from calm
Wind: Calm
Temperature: 70°F , 21°C
Dew Point: 70°F , 21°C
Humidity: 100%
Barometer: 30.18 inHg , 1022 hPa
Clouds: Clear
Visibility: 10 miles , 16 km
2019/06/27 05:53 KMGM 270553Z AUTO 00000KT 10SM CLR 21/21 A3018 RMK AO2 SLP216 60040 T02110206 10306 20211 403280211 53001 $
KMXF - Maxwell Afb/Mgm, Alabama, USA
Distance from station: N 44mi, 70km
Updated: Wed, 26-Jun-2019 11:56pm CDT
Mostly cloudy
Mostly cloudy
 Wind from calm
Wind: Calm
Temperature: 72°F , 22°C
Dew Point: 70°F , 21°C
Humidity: 94%
Barometer: 30.17 inHg , 1021.7 hPa
Clouds: Mostly cloudy
Visibility: 10 miles , 16 km
Cloud details: Mostly cloudy 12000 ft
2019/06/27 04:56 KMXF 270456Z AUTO 00000KT 10SM BKN120 22/21 A3017 RMK AO2 SLPNO T02170210 $
KLOR - Lowe Ahp/Ft. Ruc, Alabama, USA
Distance from station: SE 44mi, 71km
Updated: Wed, 26-Jun-2019 11:58pm CDT
Mostly cloudy
Mostly cloudy
 Wind from calm
Wind: Calm
Temperature: 79°F , 26°C
Dew Point: 68°F , 20°C
Humidity: 70%
Barometer: 30.17 inHg , 1021.7 hPa
Clouds: Mostly cloudy
Visibility: 10 miles , 16 km
Cloud details: Mostly cloudy 13000 ft
2019/06/27 04:58 KLOR 270458Z AUTO 00000KT 10SM BKN130 26/20 A3017 RMK AO2 SLP197 T02560195
 
KGZH - Evergreen, Alabama, USA
Distance from station: WSW 46mi, 75km
Updated: Thu, 27-Jun-2019 12:53am CDT
Clear
Clear
 Wind from calm
Wind: Calm
Temperature: 75°F , 24°C
Dew Point: 72°F , 22°C
Humidity: 89%
Barometer: 30.17 inHg , 1021.7 hPa
Clouds: Clear
Visibility: 10 miles , 16 km
2019/06/27 05:53 KGZH 270553Z AUTO 00000KT 10SM CLR 24/22 A3017 RMK AO2 SLP211 T02390217 10300 20239 403560217 58001
K0J4 - Florala Muni, Alabama, USA
Distance from station: S 47mi, 76km
Updated: Wed, 26-Jun-2019 11:58pm CDT
Clear
Clear
 Wind from calm
Wind: Calm
Temperature: 75°F , 24°C
Dew Point: 70°F , 21°C
Humidity: 83%
Barometer: 30.19 inHg , 1022.4 hPa
Clouds: Clear
Visibility: 10 miles , 16 km
2019/06/27 04:58 K0J4 270458Z AUTO 00000KT 10SM CLR 24/21 A3019 RMK AO2 SLP217 T02440206 403610211
KOZR - Ozark/Cairns Aaf, Alabama, USA
Distance from station: SE 49mi, 78km
Updated: Wed, 26-Jun-2019 11:56pm CDT
Clear
Clear
 Wind from N
Wind: N 6 mph , 9 km/h
Temperature: 79°F , 26°C
Dew Point: 68°F , 20°C
Humidity: 70%
Barometer: 30.17 inHg , 1021.7 hPa
Clouds: Clear
Visibility: 10 miles , 16 km
2019/06/27 04:56 KOZR 270456Z AUTO 35005KT 10SM CLR 26/20 A3017 RMK AO2 SLP215 T02630199 $
 
KHEY - Ft Rucker/Hanche, Alabama, USA
Distance from station: ESE 49mi, 79km
Updated: Wed, 26-Jun-2019 11:58pm CDT
Mostly cloudy
Mostly cloudy
 Wind from NNW
Wind: NNW 5 mph , 7 km/h
Temperature: 79°F , 26°C
Dew Point: 66°F , 19°C
Humidity: 65%
Barometer: 30.16 inHg , 1021.3 hPa
Clouds: Mostly cloudy
Visibility: 10 miles , 16 km
Cloud details: Mostly cloudy 13000 ft
2019/06/27 04:58 KHEY 270458Z AUTO 34004KT 10SM BKN130 26/19 A3016 RMK AO2 SLP212 T02610187
KDHN - Dothan, Alabama, USA
Distance from station: ESE 61mi, 97km
Updated: Thu, 27-Jun-2019 12:53am CDT
Clear
Clear
 Wind from NNW
Wind: NNW 8 mph , 13 km/h
Temperature: 79°F , 26°C
Dew Point: 66°F , 19°C
Humidity: 65%
Barometer: 30.19 inHg , 1022.4 hPa
Clouds: Clear
Visibility: 10 miles , 16 km
2019/06/27 05:53 KDHN 270553Z AUTO 33007KT 10SM CLR 26/19 A3019 RMK AO2 SLP217 T02560189 10333 20256 50001
KCEW - Crestview, Florida, USA
Distance from station: S 66mi, 107km
Updated: Thu, 27-Jun-2019 12:53am CDT
Clear
Clear
 Wind from calm
Wind: Calm
Temperature: 75°F , 24°C
Dew Point: 70°F , 21°C
Humidity: 83%
Barometer: 30.17 inHg , 1021.7 hPa
Clouds: Clear
Visibility: 10 miles , 16 km
2019/06/27 05:53 KCEW 270553Z AUTO 00000KT 10SM CLR 24/21 A3017 RMK AO2 SLP211 T02390206 10328 20239 403610211 50003
 
KEUF - Eufaula, Alabama, USA
Distance from station: ENE 73mi, 118km
Updated: Mon, 04-Mar-2019 12:58pm CST
NOT Current

 
Barometer: 30.10 inHg , 1019.3 hPa
2019/03/04 18:58 KEUF 041858Z AUTO A3010 RMK AO2 RAEMM TSB02B32 SLPNO PWINO FZRANO TSNO $
KJKA - Gulf Shores, Alabama, USA
Distance from station: SSW 132mi, 212km
Updated: Thu, 27-Jun-2019 12:35am CDT
Clear
Clear
 Wind from calm
Wind: Calm
Temperature: 79°F , 26°C
Dew Point: 72°F , 22°C
Humidity: 79%
Barometer: 30.16 inHg , 1021.3 hPa
Clouds: Clear
Visibility: 10 miles , 16 km
2019/06/27 05:35 KJKA 270535Z AUTO 00000KT 10SM CLR 26/22 A3016 RMK AO2 T02620223
KLSF - Ft Benning/Colum, Georgia, USA
Distance from station: SNE 89mi, 143km
Updated: Wed, 26-Jun-2019 11:56pm CDT
Clear
Clear
 Wind from calm
Wind: Calm
Temperature: 70°F , 21°C
Dew Point: 70°F , 21°C
Humidity: 100%
Barometer: 30.17 inHg , 1021.7 hPa
Clouds: Clear
Visibility: 10 miles , 16 km
2019/06/27 04:56 KLSF 270456Z AUTO 00000KT 10SM CLR 21/21 A3017 RMK AO2 RAB14E16 SLP220 P0000 T02130213 403290210 $
 
KMOB - Mobile/Bates, Alabama, USA
Distance from station: SW 125mi, 202km
Updated: Wed, 26-Jun-2019 11:56pm CDT
Clear
Clear
 Wind from calm
Wind: Calm
Temperature: 81°F , 27°C
Heat Index: 86°F , 30°C
Dew Point: 73°F , 23°C
Humidity: 79%
Barometer: 30.20 inHg , 1022.7 hPa
Clouds: Clear
Visibility: 10 miles , 16 km
2019/06/27 04:56 KMOB 270456Z 00000KT 10SM CLR 27/23 A3020 RMK AO2 SLP222 T02670233
KNMM - Meridian Nas, Mississippi, USA
Distance from station: WNW 151mi, 243km
Updated: Wed, 26-Jun-2019 11:56pm CDT
Clear
Clear
 Wind from calm
Wind: Calm
Temperature: 72°F , 22°C
Dew Point: 70°F , 21°C
Humidity: 94%
Barometer: 30.19 inHg , 1022.4 hPa
Clouds: Clear
Visibility: 10 miles , 16 km
2019/06/27 04:56 KNMM 270456Z 00000KT 10SM CLR 22/21 A3019 RMK AO2 SLP231 T02220211
KQHY - Hurlbert (Ft Walton Bch), Florida, USA
Distance from station: S 94mi, 151km
Updated: Wed, 26-Jun-2019 11:56pm CDT
Mostly cloudy
Mostly cloudy
 Wind from N
Wind: N 3 mph , 6 km/h
Temperature: 82°F , 28°C
Heat Index: 87°F , 31°C
Dew Point: 73°F , 23°C
Humidity: 74%
Barometer: 30.17 inHg , 1021.7 hPa
Clouds: Mostly cloudy
Visibility: 10 miles , 16 km
Cloud details: Mostly cloudy 15000 ft
2019/06/27 04:56 KQHY 270456Z AUTO 35003KT 10SM BKN150 28/23 A3017 RMK AO2 SLP223 T02830233 403290239 $
 
KTCL - Tuscaloosa, Alabama, USA
Distance from station: NNW 129mi, 207km
Updated: Thu, 27-Jun-2019 12:53am CDT
Clear
Clear
 Wind from calm
Wind: Calm
Temperature: 73°F , 23°C
Dew Point: 70°F , 21°C
Humidity: 89%
Barometer: 30.18 inHg , 1022 hPa
Clouds: Clear
Visibility: 10 miles , 16 km
2019/06/27 05:53 KTCL 270553Z AUTO 00000KT 10SM CLR 23/21 A3018 RMK AO2 SLP217 T02330206 10311 20228 403280228 58001
KECP - Panama City, Florida, USA
Distance from station: SSE 122mi, 196km
Updated: Thu, 27-Jun-2019 12:53am CDT
Clear
Clear
 Wind from NW
Wind: NW 5 mph , 7 km/h
Temperature: 79°F , 26°C
Dew Point: 70°F , 21°C
Humidity: 74%
Barometer: 30.13 inHg , 1020.3 hPa
Clouds: Clear
Visibility: 10 miles , 16 km
2019/06/27 05:53 KECP 270553Z AUTO 32004KT 10SM CLR 26/21 A3013 RMK AO2 SLP212 T02560211 10311 20256 403610222 50003
KCBM - Columbus Afb, Mississippi, USA
Distance from station: NW 175mi, 282km
Updated: Wed, 26-Jun-2019 11:56pm CDT
Clear
Clear
 Wind from W
Wind: W 5 mph , 7 km/h
Temperature: 75°F , 24°C
Dew Point: 70°F , 21°C
Humidity: 83%
Barometer: 30.17 inHg , 1021.7 hPa
Clouds: Clear
Visibility: 10 miles , 16 km
2019/06/27 04:56 KCBM 270456Z AUTO 26004KT 10SM CLR 24/21 A3017 RMK AO2 SLP217 T02350214
 
KBHM - Birmingham, Alabama, USA
Distance from station: N 132mi, 212km
Updated: Thu, 27-Jun-2019 12:53am CDT
Partly cloudy
Partly cloudy
 Wind from N
Wind: N 3 mph , 6 km/h
Temperature: 73°F , 23°C
Dew Point: 66°F , 19°C
Humidity: 78%
Barometer: 30.21 inHg , 1023 hPa
Clouds: Partly cloudy
Visibility: 10 miles , 16 km
Cloud details: Partly cloudy 12000 ft
2019/06/27 05:53 KBHM 270553Z 35003KT 10SM SCT120 23/19 A3021 RMK AO2 SLP222 60000 T02280194 10244 20222 403220222 58002
KAAF - Apalachicola, Florida, USA
Distance from station: SSE 156mi, 250km
Updated: Thu, 27-Jun-2019 12:53am CDT
Clear
Clear
 Wind from calm
Wind: Calm
Temperature: 79°F , 26°C
Dew Point: 75°F , 24°C
Humidity: 89%
Barometer: 30.13 inHg , 1020.3 hPa
Clouds: Clear
Visibility: 10 miles , 16 km
2019/06/27 05:53 KAAF 270553Z AUTO 00000KT 10SM CLR 26/24 A3013 RMK AO2 SLP202 T02610244 10311 20261 50003
KATL - Atlanta, Georgia, USA
Distance from station: NE 177mi, 287km
Updated: Thu, 27-Jun-2019 12:52am CDT
Mostly cloudy
Mostly cloudy
 Wind from N
Wind: N 5 mph , 7 km/h
Temperature: 73°F , 23°C
Dew Point: 70°F , 21°C
Humidity: 89%
Barometer: 30.19 inHg , 1022.4 hPa
Clouds: Mostly cloudy
Visibility: 10 miles , 16 km
Cloud details: Mostly cloudy 18000 ft
Mostly cloudy 25000 ft
2019/06/27 05:52 KATL 270552Z 36004KT 10SM BKN180 BKN250 23/21 A3019 RMK AO2 SLP213 T02330206 10244 20228 50000
 
KGPT - Gulfport, Mississippi, USA
Distance from station: SW 192mi, 309km
Updated: Thu, 27-Jun-2019 12:53am CDT
Clear
Clear
 Wind from calm
Wind: Calm
Temperature: 81°F , 27°C
Heat Index: 86°F , 30°C
Dew Point: 73°F , 23°C
Humidity: 79%
Barometer: 30.16 inHg , 1021.3 hPa
Clouds: Clear
Visibility: 10 miles , 16 km
2019/06/27 05:53 KGPT 270553Z AUTO 00000KT 10SM CLR 27/23 A3016 RMK AO2 SLP212 T02720228 10306 20272 403390217 50004
KNEW - New Orleans/Lake, Louisiana, USA
Distance from station: SW 255mi, 410km
Updated: Thu, 27-Jun-2019 12:53am CDT
Clear
Clear
 Wind from E
Wind: E 7 mph , 11 km/h
Temperature: 84°F , 29°C
Heat Index: 92°F , 33°C
Dew Point: 75°F , 24°C
Humidity: 74%
Barometer: 30.17 inHg , 1021.7 hPa
Clouds: Clear
Visibility: 10 miles , 16 km
2019/06/27 05:53 KNEW 270553Z AUTO 08006KT 10SM CLR 29/24 A3017 RMK AO2 SLP208 T02890239 10311 20289 403330256 50005
KP92 - Salt Point, Louisiana, USA
Distance from station: SW 347mi, 559km
Updated: Thu, 27-Jun-2019 12:53am CDT

 
Temperature: 81°F , 27°C
Heat Index: 89°F , 32°C
Dew Point: 79°F , 26°C
Humidity: 94%
Barometer: 30.14 inHg , 1020.7 hPa
2019/06/27 05:53 KP92 270553Z AUTO 27/26 A3014 RMK AO1 SLP207 T02670261 10294 20267 403220239 50006 $